sensor_id;sensor_type;location;lat;lon;timestamp;P1;durP1;ratioP1;P2;durP2;ratioP2
47844;SDS011;33605;48.822;8.796;2023-12-20T00:01:55;2.73;;;2.07;;
47844;SDS011;33605;48.822;8.796;2023-12-20T00:04:21;2.13;;;1.97;;
47844;SDS011;33605;48.822;8.796;2023-12-20T00:06:47;2.33;;;2.07;;
47844;SDS011;33605;48.822;8.796;2023-12-20T00:09:13;4.67;;;2.20;;
47844;SDS011;33605;48.822;8.796;2023-12-20T00:11:39;2.47;;;2.03;;
47844;SDS011;33605;48.822;8.796;2023-12-20T00:14:07;4.90;;;2.17;;
47844;SDS011;33605;48.822;8.796;2023-12-20T00:16:33;2.00;;;1.77;;
47844;SDS011;33605;48.822;8.796;2023-12-20T00:18:59;2.10;;;1.90;;
47844;SDS011;33605;48.822;8.796;2023-12-20T00:21:25;1.80;;;1.70;;
47844;SDS011;33605;48.822;8.796;2023-12-20T00:23:51;2.60;;;2.40;;
47844;SDS011;33605;48.822;8.796;2023-12-20T00:26:17;2.30;;;2.10;;
47844;SDS011;33605;48.822;8.796;2023-12-20T00:28:43;1.97;;;1.87;;
47844;SDS011;33605;48.822;8.796;2023-12-20T00:31:09;2.60;;;2.40;;
47844;SDS011;33605;48.822;8.796;2023-12-20T00:33:35;2.20;;;2.00;;
47844;SDS011;33605;48.822;8.796;2023-12-20T00:36:01;3.03;;;2.30;;
47844;SDS011;33605;48.822;8.796;2023-12-20T00:38:27;2.50;;;2.30;;
47844;SDS011;33605;48.822;8.796;2023-12-20T00:40:53;2.67;;;2.47;;
47844;SDS011;33605;48.822;8.796;2023-12-20T00:43:19;2.23;;;2.03;;
47844;SDS011;33605;48.822;8.796;2023-12-20T00:45:45;1.60;;;1.50;;
47844;SDS011;33605;48.822;8.796;2023-12-20T00:48:11;1.40;;;1.30;;
47844;SDS011;33605;48.822;8.796;2023-12-20T00:50:37;1.67;;;1.37;;
47844;SDS011;33605;48.822;8.796;2023-12-20T00:53:03;2.90;;;1.10;;
47844;SDS011;33605;48.822;8.796;2023-12-20T00:55:29;1.20;;;1.10;;
47844;SDS011;33605;48.822;8.796;2023-12-20T00:57:55;1.20;;;1.10;;
47844;SDS011;33605;48.822;8.796;2023-12-20T01:00:21;2.07;;;1.00;;
47844;SDS011;33605;48.822;8.796;2023-12-20T01:02:47;1.20;;;1.00;;
47844;SDS011;33605;48.822;8.796;2023-12-20T01:05:16;1.17;;;1.07;;
47844;SDS011;33605;48.822;8.796;2023-12-20T01:07:42;2.13;;;1.00;;
47844;SDS011;33605;48.822;8.796;2023-12-20T01:10:08;1.20;;;0.90;;
47844;SDS011;33605;48.822;8.796;2023-12-20T01:12:35;0.90;;;0.90;;
47844;SDS011;33605;48.822;8.796;2023-12-20T01:15:02;0.90;;;0.90;;
47844;SDS011;33605;48.822;8.796;2023-12-20T01:17:29;0.90;;;0.90;;
47844;SDS011;33605;48.822;8.796;2023-12-20T01:19:55;1.00;;;0.90;;
47844;SDS011;33605;48.822;8.796;2023-12-20T01:22:21;0.90;;;0.90;;
47844;SDS011;33605;48.822;8.796;2023-12-20T01:24:47;0.80;;;0.80;;
47844;SDS011;33605;48.822;8.796;2023-12-20T01:27:13;1.13;;;1.00;;
47844;SDS011;33605;48.822;8.796;2023-12-20T01:29:39;1.07;;;0.97;;
47844;SDS011;33605;48.822;8.796;2023-12-20T01:32:06;0.90;;;0.90;;
47844;SDS011;33605;48.822;8.796;2023-12-20T01:34:32;0.80;;;0.80;;
47844;SDS011;33605;48.822;8.796;2023-12-20T01:36:58;1.00;;;1.00;;
47844;SDS011;33605;48.822;8.796;2023-12-20T01:39:26;0.80;;;0.80;;
47844;SDS011;33605;48.822;8.796;2023-12-20T01:41:52;0.90;;;0.90;;
47844;SDS011;33605;48.822;8.796;2023-12-20T01:44:18;0.80;;;0.80;;
47844;SDS011;33605;48.822;8.796;2023-12-20T01:46:44;0.80;;;0.80;;
47844;SDS011;33605;48.822;8.796;2023-12-20T01:49:10;1.00;;;0.90;;
47844;SDS011;33605;48.822;8.796;2023-12-20T01:51:37;0.80;;;0.80;;
47844;SDS011;33605;48.822;8.796;2023-12-20T01:54:03;0.90;;;0.90;;
47844;SDS011;33605;48.822;8.796;2023-12-20T01:56:29;1.00;;;1.00;;
47844;SDS011;33605;48.822;8.796;2023-12-20T01:58:56;0.87;;;0.87;;
47844;SDS011;33605;48.822;8.796;2023-12-20T02:01:22;0.90;;;0.90;;
47844;SDS011;33605;48.822;8.796;2023-12-20T02:03:48;0.80;;;0.80;;
47844;SDS011;33605;48.822;8.796;2023-12-20T02:06:14;0.80;;;0.80;;
47844;SDS011;33605;48.822;8.796;2023-12-20T02:08:40;0.80;;;0.80;;
47844;SDS011;33605;48.822;8.796;2023-12-20T02:11:06;6.10;;;1.03;;
47844;SDS011;33605;48.822;8.796;2023-12-20T02:13:33;0.80;;;0.80;;
47844;SDS011;33605;48.822;8.796;2023-12-20T02:15:59;0.90;;;0.90;;
47844;SDS011;33605;48.822;8.796;2023-12-20T02:18:26;0.90;;;0.90;;
47844;SDS011;33605;48.822;8.796;2023-12-20T02:20:52;0.80;;;0.80;;
47844;SDS011;33605;48.822;8.796;2023-12-20T02:23:18;0.90;;;0.90;;
47844;SDS011;33605;48.822;8.796;2023-12-20T02:25:44;0.90;;;0.90;;
47844;SDS011;33605;48.822;8.796;2023-12-20T02:28:10;0.97;;;0.90;;
47844;SDS011;33605;48.822;8.796;2023-12-20T02:30:36;1.20;;;0.90;;
47844;SDS011;33605;48.822;8.796;2023-12-20T02:33:03;1.10;;;1.00;;
47844;SDS011;33605;48.822;8.796;2023-12-20T02:35:29;0.97;;;0.97;;
47844;SDS011;33605;48.822;8.796;2023-12-20T02:37:55;0.90;;;0.90;;
47844;SDS011;33605;48.822;8.796;2023-12-20T02:40:21;0.90;;;0.90;;
47844;SDS011;33605;48.822;8.796;2023-12-20T02:42:47;0.80;;;0.80;;
47844;SDS011;33605;48.822;8.796;2023-12-20T02:45:13;1.00;;;0.90;;
47844;SDS011;33605;48.822;8.796;2023-12-20T02:47:39;1.10;;;1.00;;
47844;SDS011;33605;48.822;8.796;2023-12-20T02:50:05;0.80;;;0.80;;
47844;SDS011;33605;48.822;8.796;2023-12-20T02:52:31;0.93;;;0.90;;
47844;SDS011;33605;48.822;8.796;2023-12-20T02:54:58;1.10;;;1.00;;
47844;SDS011;33605;48.822;8.796;2023-12-20T02:57:24;1.10;;;1.00;;
47844;SDS011;33605;48.822;8.796;2023-12-20T02:59:50;0.93;;;0.90;;
47844;SDS011;33605;48.822;8.796;2023-12-20T03:02:16;0.90;;;0.90;;
47844;SDS011;33605;48.822;8.796;2023-12-20T03:04:42;2.40;;;0.83;;
47844;SDS011;33605;48.822;8.796;2023-12-20T03:07:08;1.10;;;1.00;;
47844;SDS011;33605;48.822;8.796;2023-12-20T03:09:34;0.80;;;0.80;;
47844;SDS011;33605;48.822;8.796;2023-12-20T03:12:00;0.90;;;0.80;;
47844;SDS011;33605;48.822;8.796;2023-12-20T03:14:26;1.63;;;0.90;;
47844;SDS011;33605;48.822;8.796;2023-12-20T03:16:52;0.80;;;0.80;;
47844;SDS011;33605;48.822;8.796;2023-12-20T03:19:18;1.20;;;1.10;;
47844;SDS011;33605;48.822;8.796;2023-12-20T03:21:44;0.80;;;0.80;;
47844;SDS011;33605;48.822;8.796;2023-12-20T03:24:10;1.10;;;1.00;;
47844;SDS011;33605;48.822;8.796;2023-12-20T03:26:36;0.80;;;0.80;;
47844;SDS011;33605;48.822;8.796;2023-12-20T03:29:02;1.57;;;1.10;;
47844;SDS011;33605;48.822;8.796;2023-12-20T03:31:29;0.80;;;0.80;;
47844;SDS011;33605;48.822;8.796;2023-12-20T03:33:55;0.80;;;0.80;;
47844;SDS011;33605;48.822;8.796;2023-12-20T03:36:21;0.90;;;0.90;;
47844;SDS011;33605;48.822;8.796;2023-12-20T03:38:47;0.90;;;0.90;;
47844;SDS011;33605;48.822;8.796;2023-12-20T03:41:13;1.00;;;0.90;;
47844;SDS011;33605;48.822;8.796;2023-12-20T03:43:39;1.17;;;1.07;;
47844;SDS011;33605;48.822;8.796;2023-12-20T03:46:05;0.90;;;0.90;;
47844;SDS011;33605;48.822;8.796;2023-12-20T03:48:31;0.90;;;0.90;;
47844;SDS011;33605;48.822;8.796;2023-12-20T03:50:57;1.17;;;1.00;;
47844;SDS011;33605;48.822;8.796;2023-12-20T03:53:23;1.00;;;0.90;;
47844;SDS011;33605;48.822;8.796;2023-12-20T03:55:49;2.30;;;1.10;;
47844;SDS011;33605;48.822;8.796;2023-12-20T03:58:15;1.20;;;1.00;;
47844;SDS011;33605;48.822;8.796;2023-12-20T04:00:41;0.80;;;0.80;;
47844;SDS011;33605;48.822;8.796;2023-12-20T04:03:07;4.10;;;2.57;;
47844;SDS011;33605;48.822;8.796;2023-12-20T04:05:33;25.40;;;6.83;;
47844;SDS011;33605;48.822;8.796;2023-12-20T04:08:00;3.40;;;1.47;;
47844;SDS011;33605;48.822;8.796;2023-12-20T04:10:26;1.10;;;1.00;;
47844;SDS011;33605;48.822;8.796;2023-12-20T04:12:53;1.10;;;1.00;;
47844;SDS011;33605;48.822;8.796;2023-12-20T04:15:20;1.00;;;0.90;;
47844;SDS011;33605;48.822;8.796;2023-12-20T04:17:45;0.80;;;0.80;;
47844;SDS011;33605;48.822;8.796;2023-12-20T04:20:11;1.10;;;1.03;;
47844;SDS011;33605;48.822;8.796;2023-12-20T04:22:37;0.97;;;0.97;;
47844;SDS011;33605;48.822;8.796;2023-12-20T04:25:04;1.00;;;0.90;;
47844;SDS011;33605;48.822;8.796;2023-12-20T04:27:30;0.90;;;0.90;;
47844;SDS011;33605;48.822;8.796;2023-12-20T04:29:56;1.00;;;0.93;;
47844;SDS011;33605;48.822;8.796;2023-12-20T04:32:22;1.00;;;1.00;;
47844;SDS011;33605;48.822;8.796;2023-12-20T04:34:49;1.17;;;0.90;;
47844;SDS011;33605;48.822;8.796;2023-12-20T04:37:15;1.00;;;1.00;;
47844;SDS011;33605;48.822;8.796;2023-12-20T04:39:41;0.90;;;0.90;;
47844;SDS011;33605;48.822;8.796;2023-12-20T04:42:07;1.00;;;1.00;;
47844;SDS011;33605;48.822;8.796;2023-12-20T04:44:33;1.20;;;1.10;;
47844;SDS011;33605;48.822;8.796;2023-12-20T04:46:59;1.13;;;1.00;;
47844;SDS011;33605;48.822;8.796;2023-12-20T04:49:26;1.00;;;0.90;;
47844;SDS011;33605;48.822;8.796;2023-12-20T04:51:52;1.10;;;1.00;;
47844;SDS011;33605;48.822;8.796;2023-12-20T04:54:18;1.30;;;1.20;;
47844;SDS011;33605;48.822;8.796;2023-12-20T04:56:44;0.90;;;0.90;;
47844;SDS011;33605;48.822;8.796;2023-12-20T04:59:11;1.20;;;1.10;;
47844;SDS011;33605;48.822;8.796;2023-12-20T05:01:38;1.20;;;1.00;;
47844;SDS011;33605;48.822;8.796;2023-12-20T05:04:04;1.20;;;1.10;;
47844;SDS011;33605;48.822;8.796;2023-12-20T05:06:30;2.20;;;1.10;;
47844;SDS011;33605;48.822;8.796;2023-12-20T05:08:56;1.37;;;1.27;;
47844;SDS011;33605;48.822;8.796;2023-12-20T05:11:22;1.37;;;1.27;;
47844;SDS011;33605;48.822;8.796;2023-12-20T05:13:48;1.00;;;1.00;;
47844;SDS011;33605;48.822;8.796;2023-12-20T05:16:14;1.10;;;1.00;;
47844;SDS011;33605;48.822;8.796;2023-12-20T05:18:43;1.00;;;0.90;;
47844;SDS011;33605;48.822;8.796;2023-12-20T05:21:09;1.90;;;1.77;;
47844;SDS011;33605;48.822;8.796;2023-12-20T05:23:35;1.30;;;1.20;;
47844;SDS011;33605;48.822;8.796;2023-12-20T05:26:02;1.07;;;1.03;;
47844;SDS011;33605;48.822;8.796;2023-12-20T05:28:28;1.20;;;1.10;;
47844;SDS011;33605;48.822;8.796;2023-12-20T05:30:54;2.60;;;1.03;;
47844;SDS011;33605;48.822;8.796;2023-12-20T05:33:20;1.53;;;1.43;;
47844;SDS011;33605;48.822;8.796;2023-12-20T05:35:46;1.30;;;1.20;;
47844;SDS011;33605;48.822;8.796;2023-12-20T05:38:12;1.10;;;1.00;;
47844;SDS011;33605;48.822;8.796;2023-12-20T05:40:38;1.20;;;1.10;;
47844;SDS011;33605;48.822;8.796;2023-12-20T05:43:04;1.10;;;1.00;;
47844;SDS011;33605;48.822;8.796;2023-12-20T05:45:30;1.10;;;1.00;;
47844;SDS011;33605;48.822;8.796;2023-12-20T05:47:57;2.37;;;2.13;;
47844;SDS011;33605;48.822;8.796;2023-12-20T05:50:23;1.70;;;1.60;;
47844;SDS011;33605;48.822;8.796;2023-12-20T05:52:50;4.90;;;4.50;;
47844;SDS011;33605;48.822;8.796;2023-12-20T05:55:16;1.57;;;1.47;;
47844;SDS011;33605;48.822;8.796;2023-12-20T05:57:42;1.50;;;1.40;;
47844;SDS011;33605;48.822;8.796;2023-12-20T06:00:08;3.53;;;2.97;;
47844;SDS011;33605;48.822;8.796;2023-12-20T06:02:34;3.00;;;2.60;;
47844;SDS011;33605;48.822;8.796;2023-12-20T06:05:03;1.80;;;1.70;;
47844;SDS011;33605;48.822;8.796;2023-12-20T06:07:29;1.30;;;1.20;;
47844;SDS011;33605;48.822;8.796;2023-12-20T06:09:55;1.20;;;1.10;;
47844;SDS011;33605;48.822;8.796;2023-12-20T06:12:21;1.40;;;1.30;;
47844;SDS011;33605;48.822;8.796;2023-12-20T06:14:47;3.53;;;2.70;;
47844;SDS011;33605;48.822;8.796;2023-12-20T06:17:14;1.80;;;1.30;;
47844;SDS011;33605;48.822;8.796;2023-12-20T06:19:40;2.03;;;1.67;;
47844;SDS011;33605;48.822;8.796;2023-12-20T06:22:07;1.60;;;1.50;;
47844;SDS011;33605;48.822;8.796;2023-12-20T06:24:33;1.40;;;1.20;;
47844;SDS011;33605;48.822;8.796;2023-12-20T06:27:00;1.20;;;1.10;;
47844;SDS011;33605;48.822;8.796;2023-12-20T06:29:29;1.60;;;1.50;;
47844;SDS011;33605;48.822;8.796;2023-12-20T06:31:56;1.40;;;1.30;;
47844;SDS011;33605;48.822;8.796;2023-12-20T06:34:22;1.57;;;1.47;;
47844;SDS011;33605;48.822;8.796;2023-12-20T06:36:48;1.30;;;1.20;;
47844;SDS011;33605;48.822;8.796;2023-12-20T06:39:14;1.70;;;1.60;;
47844;SDS011;33605;48.822;8.796;2023-12-20T06:41:40;1.47;;;1.37;;
47844;SDS011;33605;48.822;8.796;2023-12-20T06:44:08;1.60;;;1.50;;
47844;SDS011;33605;48.822;8.796;2023-12-20T06:46:34;1.50;;;1.40;;
47844;SDS011;33605;48.822;8.796;2023-12-20T06:49:00;1.50;;;1.40;;
47844;SDS011;33605;48.822;8.796;2023-12-20T06:51:26;1.47;;;1.37;;
47844;SDS011;33605;48.822;8.796;2023-12-20T06:53:52;1.70;;;1.60;;
47844;SDS011;33605;48.822;8.796;2023-12-20T06:56:19;1.90;;;1.70;;
47844;SDS011;33605;48.822;8.796;2023-12-20T06:58:45;1.70;;;1.60;;
47844;SDS011;33605;48.822;8.796;2023-12-20T07:01:11;2.30;;;2.07;;
47844;SDS011;33605;48.822;8.796;2023-12-20T07:03:38;2.80;;;2.50;;
47844;SDS011;33605;48.822;8.796;2023-12-20T07:06:05;1.80;;;1.70;;
47844;SDS011;33605;48.822;8.796;2023-12-20T07:08:31;3.83;;;2.30;;
47844;SDS011;33605;48.822;8.796;2023-12-20T07:10:57;3.97;;;2.30;;
47844;SDS011;33605;48.822;8.796;2023-12-20T07:13:23;2.90;;;2.20;;
47844;SDS011;33605;48.822;8.796;2023-12-20T07:15:49;2.30;;;2.10;;
47844;SDS011;33605;48.822;8.796;2023-12-20T07:18:15;3.00;;;2.80;;
47844;SDS011;33605;48.822;8.796;2023-12-20T07:20:42;3.30;;;2.50;;
47844;SDS011;33605;48.822;8.796;2023-12-20T07:23:08;2.53;;;2.33;;
47844;SDS011;33605;48.822;8.796;2023-12-20T07:25:34;4.60;;;3.03;;
47844;SDS011;33605;48.822;8.796;2023-12-20T07:28:00;3.03;;;2.77;;
47844;SDS011;33605;48.822;8.796;2023-12-20T07:30:26;2.10;;;2.00;;
47844;SDS011;33605;48.822;8.796;2023-12-20T07:32:52;2.73;;;2.50;;
47844;SDS011;33605;48.822;8.796;2023-12-20T07:35:19;5.50;;;2.77;;
47844;SDS011;33605;48.822;8.796;2023-12-20T07:37:45;2.70;;;2.50;;
47844;SDS011;33605;48.822;8.796;2023-12-20T07:40:11;4.10;;;2.77;;
47844;SDS011;33605;48.822;8.796;2023-12-20T07:42:37;3.30;;;3.00;;
47844;SDS011;33605;48.822;8.796;2023-12-20T07:45:03;3.00;;;2.20;;
47844;SDS011;33605;48.822;8.796;2023-12-20T07:47:29;2.80;;;2.57;;
47844;SDS011;33605;48.822;8.796;2023-12-20T07:49:55;4.90;;;2.60;;
47844;SDS011;33605;48.822;8.796;2023-12-20T07:52:22;3.13;;;2.20;;
47844;SDS011;33605;48.822;8.796;2023-12-20T07:54:48;2.73;;;2.53;;
47844;SDS011;33605;48.822;8.796;2023-12-20T07:57:14;3.07;;;2.77;;
47844;SDS011;33605;48.822;8.796;2023-12-20T07:59:40;3.00;;;2.80;;
47844;SDS011;33605;48.822;8.796;2023-12-20T08:02:06;5.00;;;2.87;;
47844;SDS011;33605;48.822;8.796;2023-12-20T08:04:32;2.60;;;2.40;;
47844;SDS011;33605;48.822;8.796;2023-12-20T08:06:58;2.93;;;2.73;;
47844;SDS011;33605;48.822;8.796;2023-12-20T08:09:25;3.13;;;2.53;;
47844;SDS011;33605;48.822;8.796;2023-12-20T08:11:51;2.37;;;2.23;;
47844;SDS011;33605;48.822;8.796;2023-12-20T08:14:17;2.93;;;2.73;;
47844;SDS011;33605;48.822;8.796;2023-12-20T08:16:43;2.77;;;2.50;;
47844;SDS011;33605;48.822;8.796;2023-12-20T08:19:09;6.60;;;3.20;;
47844;SDS011;33605;48.822;8.796;2023-12-20T08:21:35;3.80;;;2.60;;
47844;SDS011;33605;48.822;8.796;2023-12-20T08:24:01;3.17;;;2.87;;
47844;SDS011;33605;48.822;8.796;2023-12-20T08:26:30;3.27;;;2.90;;
47844;SDS011;33605;48.822;8.796;2023-12-20T08:28:56;4.93;;;3.23;;
47844;SDS011;33605;48.822;8.796;2023-12-20T08:31:22;3.20;;;2.87;;
47844;SDS011;33605;48.822;8.796;2023-12-20T08:33:48;3.80;;;2.97;;
47844;SDS011;33605;48.822;8.796;2023-12-20T08:36:15;6.47;;;3.13;;
47844;SDS011;33605;48.822;8.796;2023-12-20T08:38:43;3.47;;;2.37;;
47844;SDS011;33605;48.822;8.796;2023-12-20T08:41:09;3.20;;;2.90;;
47844;SDS011;33605;48.822;8.796;2023-12-20T08:43:35;3.10;;;2.80;;
47844;SDS011;33605;48.822;8.796;2023-12-20T08:46:01;4.17;;;2.60;;
47844;SDS011;33605;48.822;8.796;2023-12-20T08:48:28;2.83;;;2.27;;
47844;SDS011;33605;48.822;8.796;2023-12-20T08:50:54;3.60;;;2.40;;
47844;SDS011;33605;48.822;8.796;2023-12-20T08:53:20;4.30;;;2.20;;
47844;SDS011;33605;48.822;8.796;2023-12-20T08:55:46;4.60;;;2.33;;
47844;SDS011;33605;48.822;8.796;2023-12-20T08:58:12;4.10;;;2.10;;
47844;SDS011;33605;48.822;8.796;2023-12-20T09:00:38;3.73;;;2.13;;
47844;SDS011;33605;48.822;8.796;2023-12-20T09:03:04;5.13;;;1.80;;
47844;SDS011;33605;48.822;8.796;2023-12-20T09:05:30;3.00;;;2.03;;
47844;SDS011;33605;48.822;8.796;2023-12-20T09:07:56;6.73;;;2.37;;
47844;SDS011;33605;48.822;8.796;2023-12-20T09:10:22;3.70;;;2.10;;
47844;SDS011;33605;48.822;8.796;2023-12-20T09:12:49;2.03;;;1.80;;
47844;SDS011;33605;48.822;8.796;2023-12-20T09:15:15;5.43;;;2.07;;
47844;SDS011;33605;48.822;8.796;2023-12-20T09:17:41;3.10;;;2.30;;
47844;SDS011;33605;48.822;8.796;2023-12-20T09:20:08;6.70;;;2.10;;
47844;SDS011;33605;48.822;8.796;2023-12-20T09:22:34;10.67;;;2.03;;
47844;SDS011;33605;48.822;8.796;2023-12-20T09:25:00;4.50;;;1.87;;
47844;SDS011;33605;48.822;8.796;2023-12-20T09:27:27;3.27;;;2.30;;
47844;SDS011;33605;48.822;8.796;2023-12-20T09:29:53;3.13;;;1.77;;
47844;SDS011;33605;48.822;8.796;2023-12-20T09:32:19;2.70;;;2.10;;
47844;SDS011;33605;48.822;8.796;2023-12-20T09:34:48;8.30;;;2.13;;
47844;SDS011;33605;48.822;8.796;2023-12-20T09:37:14;2.80;;;1.90;;
47844;SDS011;33605;48.822;8.796;2023-12-20T09:39:40;4.70;;;1.90;;
47844;SDS011;33605;48.822;8.796;2023-12-20T09:42:06;4.93;;;1.93;;
47844;SDS011;33605;48.822;8.796;2023-12-20T09:44:33;4.07;;;1.90;;
47844;SDS011;33605;48.822;8.796;2023-12-20T09:47:01;5.70;;;2.70;;
47844;SDS011;33605;48.822;8.796;2023-12-20T09:49:28;4.83;;;4.37;;
47844;SDS011;33605;48.822;8.796;2023-12-20T09:51:54;6.93;;;4.00;;
47844;SDS011;33605;48.822;8.796;2023-12-20T09:54:20;6.50;;;3.50;;
47844;SDS011;33605;48.822;8.796;2023-12-20T09:56:47;5.67;;;2.50;;
47844;SDS011;33605;48.822;8.796;2023-12-20T09:59:13;2.90;;;2.43;;
47844;SDS011;33605;48.822;8.796;2023-12-20T10:01:40;5.87;;;2.93;;
47844;SDS011;33605;48.822;8.796;2023-12-20T10:04:06;4.23;;;2.77;;
47844;SDS011;33605;48.822;8.796;2023-12-20T10:06:35;5.23;;;3.87;;
47844;SDS011;33605;48.822;8.796;2023-12-20T10:09:01;3.70;;;3.27;;
47844;SDS011;33605;48.822;8.796;2023-12-20T10:11:27;5.03;;;3.50;;
47844;SDS011;33605;48.822;8.796;2023-12-20T10:13:58;7.53;;;4.03;;
47844;SDS011;33605;48.822;8.796;2023-12-20T10:16:26;4.70;;;4.00;;
47844;SDS011;33605;48.822;8.796;2023-12-20T10:18:52;7.73;;;2.90;;
47844;SDS011;33605;48.822;8.796;2023-12-20T10:21:18;6.83;;;2.57;;
47844;SDS011;33605;48.822;8.796;2023-12-20T10:23:45;4.00;;;2.30;;
47844;SDS011;33605;48.822;8.796;2023-12-20T10:26:18;3.90;;;2.47;;
47844;SDS011;33605;48.822;8.796;2023-12-20T10:28:45;4.30;;;2.50;;
47844;SDS011;33605;48.822;8.796;2023-12-20T10:31:26;6.13;;;2.90;;
47844;SDS011;33605;48.822;8.796;2023-12-20T10:33:52;7.83;;;2.93;;
47844;SDS011;33605;48.822;8.796;2023-12-20T10:36:18;4.83;;;2.83;;
47844;SDS011;33605;48.822;8.796;2023-12-20T10:38:44;4.40;;;2.27;;
47844;SDS011;33605;48.822;8.796;2023-12-20T10:41:12;5.43;;;2.57;;
47844;SDS011;33605;48.822;8.796;2023-12-20T10:43:42;3.67;;;2.43;;
47844;SDS011;33605;48.822;8.796;2023-12-20T10:46:08;5.80;;;2.97;;
47844;SDS011;33605;48.822;8.796;2023-12-20T10:48:34;4.57;;;2.83;;
47844;SDS011;33605;48.822;8.796;2023-12-20T10:51:00;4.17;;;2.37;;
47844;SDS011;33605;48.822;8.796;2023-12-20T10:53:26;5.00;;;2.63;;
47844;SDS011;33605;48.822;8.796;2023-12-20T10:55:54;3.90;;;2.50;;
47844;SDS011;33605;48.822;8.796;2023-12-20T10:58:24;4.23;;;2.87;;
47844;SDS011;33605;48.822;8.796;2023-12-20T11:00:51;6.33;;;2.43;;
47844;SDS011;33605;48.822;8.796;2023-12-20T11:03:21;3.67;;;2.57;;
47844;SDS011;33605;48.822;8.796;2023-12-20T11:06:09;8.37;;;4.87;;
47844;SDS011;33605;48.822;8.796;2023-12-20T11:11:05;3.80;;;2.50;;
47844;SDS011;33605;48.822;8.796;2023-12-20T11:13:34;6.67;;;2.77;;
47844;SDS011;33605;48.822;8.796;2023-12-20T11:16:02;10.87;;;6.57;;
47844;SDS011;33605;48.822;8.796;2023-12-20T11:18:31;9.73;;;7.07;;
47844;SDS011;33605;48.822;8.796;2023-12-20T11:21:06;12.27;;;7.60;;
47844;SDS011;33605;48.822;8.796;2023-12-20T11:23:32;5.70;;;3.40;;
47844;SDS011;33605;48.822;8.796;2023-12-20T11:25:59;10.20;;;4.13;;
47844;SDS011;33605;48.822;8.796;2023-12-20T11:28:25;5.47;;;2.83;;
47844;SDS011;33605;48.822;8.796;2023-12-20T11:30:53;4.40;;;2.33;;
47844;SDS011;33605;48.822;8.796;2023-12-20T11:33:22;3.90;;;2.90;;
47844;SDS011;33605;48.822;8.796;2023-12-20T11:35:49;4.77;;;2.77;;
47844;SDS011;33605;48.822;8.796;2023-12-20T11:38:15;4.60;;;2.73;;
47844;SDS011;33605;48.822;8.796;2023-12-20T11:40:42;9.63;;;2.40;;
47844;SDS011;33605;48.822;8.796;2023-12-20T11:43:08;5.00;;;2.90;;
47844;SDS011;33605;48.822;8.796;2023-12-20T11:45:34;6.03;;;2.57;;
47844;SDS011;33605;48.822;8.796;2023-12-20T11:48:01;3.50;;;2.10;;
47844;SDS011;33605;48.822;8.796;2023-12-20T11:50:27;5.90;;;2.57;;
47844;SDS011;33605;48.822;8.796;2023-12-20T11:52:54;4.47;;;1.90;;
47844;SDS011;33605;48.822;8.796;2023-12-20T11:55:21;2.40;;;1.53;;
47844;SDS011;33605;48.822;8.796;2023-12-20T11:57:47;3.90;;;1.70;;
47844;SDS011;33605;48.822;8.796;2023-12-20T12:00:13;6.13;;;2.13;;
47844;SDS011;33605;48.822;8.796;2023-12-20T12:02:39;2.93;;;2.00;;
47844;SDS011;33605;48.822;8.796;2023-12-20T12:05:06;7.60;;;2.20;;
47844;SDS011;33605;48.822;8.796;2023-12-20T12:07:33;6.93;;;2.00;;
47844;SDS011;33605;48.822;8.796;2023-12-20T12:09:59;2.83;;;1.90;;
47844;SDS011;33605;48.822;8.796;2023-12-20T12:12:25;4.30;;;2.30;;
47844;SDS011;33605;48.822;8.796;2023-12-20T12:14:52;2.90;;;2.00;;
47844;SDS011;33605;48.822;8.796;2023-12-20T12:17:18;3.37;;;1.93;;
47844;SDS011;33605;48.822;8.796;2023-12-20T12:19:44;2.60;;;1.80;;
47844;SDS011;33605;48.822;8.796;2023-12-20T12:22:10;4.00;;;1.80;;
47844;SDS011;33605;48.822;8.796;2023-12-20T12:24:41;3.97;;;2.27;;
47844;SDS011;33605;48.822;8.796;2023-12-20T12:27:07;3.33;;;1.83;;
47844;SDS011;33605;48.822;8.796;2023-12-20T12:29:34;3.63;;;1.90;;
47844;SDS011;33605;48.822;8.796;2023-12-20T12:32:00;4.50;;;1.80;;
47844;SDS011;33605;48.822;8.796;2023-12-20T12:34:29;7.03;;;2.50;;
47844;SDS011;33605;48.822;8.796;2023-12-20T12:36:55;5.03;;;3.00;;
47844;SDS011;33605;48.822;8.796;2023-12-20T12:39:23;9.53;;;3.63;;
47844;SDS011;33605;48.822;8.796;2023-12-20T12:41:52;3.47;;;2.23;;
47844;SDS011;33605;48.822;8.796;2023-12-20T12:44:19;3.03;;;1.70;;
47844;SDS011;33605;48.822;8.796;2023-12-20T12:46:45;3.10;;;2.20;;
47844;SDS011;33605;48.822;8.796;2023-12-20T12:49:11;5.07;;;2.97;;
47844;SDS011;33605;48.822;8.796;2023-12-20T12:51:37;7.20;;;2.73;;
47844;SDS011;33605;48.822;8.796;2023-12-20T12:54:03;4.40;;;2.30;;
47844;SDS011;33605;48.822;8.796;2023-12-20T12:56:29;2.50;;;2.00;;
47844;SDS011;33605;48.822;8.796;2023-12-20T12:58:55;6.00;;;2.33;;
47844;SDS011;33605;48.822;8.796;2023-12-20T13:01:21;3.40;;;2.30;;
47844;SDS011;33605;48.822;8.796;2023-12-20T13:03:47;2.90;;;1.90;;
47844;SDS011;33605;48.822;8.796;2023-12-20T13:06:13;2.00;;;1.70;;
47844;SDS011;33605;48.822;8.796;2023-12-20T13:08:39;2.67;;;1.80;;
47844;SDS011;33605;48.822;8.796;2023-12-20T13:11:05;2.57;;;1.70;;
47844;SDS011;33605;48.822;8.796;2023-12-20T13:13:31;3.40;;;1.70;;
47844;SDS011;33605;48.822;8.796;2023-12-20T13:15:57;3.70;;;1.90;;
47844;SDS011;33605;48.822;8.796;2023-12-20T13:18:23;2.70;;;2.17;;
47844;SDS011;33605;48.822;8.796;2023-12-20T13:20:49;4.33;;;2.13;;
47844;SDS011;33605;48.822;8.796;2023-12-20T13:23:15;3.67;;;1.60;;
47844;SDS011;33605;48.822;8.796;2023-12-20T13:25:43;3.70;;;2.00;;
47844;SDS011;33605;48.822;8.796;2023-12-20T13:28:10;2.67;;;1.90;;
47844;SDS011;33605;48.822;8.796;2023-12-20T13:30:37;3.43;;;2.13;;
47844;SDS011;33605;48.822;8.796;2023-12-20T13:33:03;3.93;;;2.00;;
47844;SDS011;33605;48.822;8.796;2023-12-20T13:35:30;4.43;;;2.70;;
47844;SDS011;33605;48.822;8.796;2023-12-20T13:37:56;4.20;;;1.80;;
47844;SDS011;33605;48.822;8.796;2023-12-20T13:40:23;7.37;;;3.63;;
47844;SDS011;33605;48.822;8.796;2023-12-20T13:42:49;13.07;;;5.10;;
47844;SDS011;33605;48.822;8.796;2023-12-20T13:45:15;2.90;;;2.60;;
47844;SDS011;33605;48.822;8.796;2023-12-20T13:47:41;5.43;;;3.40;;
47844;SDS011;33605;48.822;8.796;2023-12-20T13:50:07;3.00;;;2.70;;
47844;SDS011;33605;48.822;8.796;2023-12-20T13:52:33;4.70;;;2.37;;
47844;SDS011;33605;48.822;8.796;2023-12-20T13:54:59;3.63;;;2.10;;
47844;SDS011;33605;48.822;8.796;2023-12-20T13:57:24;3.00;;;2.43;;
47844;SDS011;33605;48.822;8.796;2023-12-20T13:59:50;5.20;;;2.60;;
47844;SDS011;33605;48.822;8.796;2023-12-20T14:02:16;4.47;;;3.03;;
47844;SDS011;33605;48.822;8.796;2023-12-20T14:04:42;3.67;;;2.10;;
47844;SDS011;33605;48.822;8.796;2023-12-20T14:07:08;5.70;;;2.70;;
47844;SDS011;33605;48.822;8.796;2023-12-20T14:09:35;6.30;;;2.50;;
47844;SDS011;33605;48.822;8.796;2023-12-20T14:12:00;4.40;;;2.23;;
47844;SDS011;33605;48.822;8.796;2023-12-20T14:14:26;5.33;;;2.37;;
47844;SDS011;33605;48.822;8.796;2023-12-20T14:16:51;9.73;;;2.50;;
47844;SDS011;33605;48.822;8.796;2023-12-20T14:19:17;5.60;;;3.33;;
47844;SDS011;33605;48.822;8.796;2023-12-20T14:21:43;4.63;;;2.00;;
47844;SDS011;33605;48.822;8.796;2023-12-20T14:24:10;6.53;;;3.00;;
47844;SDS011;33605;48.822;8.796;2023-12-20T14:26:40;7.70;;;2.60;;
47844;SDS011;33605;48.822;8.796;2023-12-20T14:29:08;5.20;;;2.77;;
47844;SDS011;33605;48.822;8.796;2023-12-20T14:31:34;5.63;;;2.43;;
47844;SDS011;33605;48.822;8.796;2023-12-20T14:34:00;3.13;;;2.33;;
47844;SDS011;33605;48.822;8.796;2023-12-20T14:36:28;6.60;;;2.60;;
47844;SDS011;33605;48.822;8.796;2023-12-20T14:38:55;7.67;;;2.73;;
47844;SDS011;33605;48.822;8.796;2023-12-20T14:41:21;9.17;;;2.90;;
47844;SDS011;33605;48.822;8.796;2023-12-20T14:43:49;12.80;;;3.30;;
47844;SDS011;33605;48.822;8.796;2023-12-20T14:46:16;4.50;;;3.47;;